Terminal Aerodrome Forecast
Issued by NWS Milwaukee/Sullivan, WI

Home | Current Version | Previous Version | Text Only | Print | Product List | Glossary On
Versions: 1 2 3 4 5 6 7 8 9 10 11 12 13 14 15 16 17 18 19 20 21 22 23 24 25 26 27 28 29 30 31 32 33 34 35 36 37 38 39 40 41 42
000
FTUS43 KMKX 301136 AAA
TAFMSN
TAF AMD
KMSN 301136Z 3012/0112 04010KT P6SM OVC011
     FM301600 05006KT P6SM SCT011 BKN025
     FM301900 06006KT P6SM SCT030
     FM302000 08007KT P6SM SCT250
     FM011100 14004KT P6SM SCT150 OVC200=

USA.gov is the U.S. government's official web portal to all federal, state and local government web resources and services.